Weather History for Peru, IL

Change the Weather History Date:

Friday, February 8, 2013

  Actual Average Record
Temperature  
Mean Temperature 28 °F -  
Max Temperature 32 °F 30 °F 53 °F (1966)
Min Temperature 24 °F 12 °F -9 °F (1985)
Degree Days  
Heating Degree Days 37    
Moisture  
Dew Point 23 °F    
Average Humidity 85    
Maximum Humidity 92    
Minimum Humidity 80    
Precipitation  
Precipitation 0.01 in - - ()
Sea Level Pressure  
Sea Level Pressure 30.28 in    
Wind  
Wind Speed 14 mph (NNW)    
Max Wind Speed 22 mph    
Max Gust Speed 29 mph    
Visibility 10 miles    
Events      
Averages and records for this station are not official NWS values.
T = Trace of Precipitation, MM = Missing Value Source: NWS Daily Summary

Daily Weather History Graph

Daily Weather History Graph

Search for Another Location

Airport:

Trip Planner

Search our weather history database for the weather conditions in past years. The results will help you decide how hot, cold, wet, or windy it might be!

Date:

Astronomy

Feb. 08, 2013 Rise Set
Actual Time 7:00 AM CST 5:22 PM CST
Civil Twilight 6:31 AM CST 5:50 PM CST
Nautical Twilight 5:58 AM CST 6:23 PM CST
Astronomical Twilight 5:26 AM CST 6:55 PM CST
Moon 5:29 AM CST (2/8) 3:55 PM CST (2/8)
Length of Visible Light 11h 19m
Length of Day
10h 22m
Waning Crescent, 3% of the Moon is Illuminated
Feb 8
Waning Crescent
Feb 10
New
Feb 17
First Quarter
Feb 25
Full
Mar 4
Last Quarter

Hourly Weather History & Observations

Time (CST) Temp. Windchill Dew Point Humidity Pressure Visibility Wind Dir Wind Speed Gust Speed Precip Events Conditions
12:15 AM 32.0 °F 21.6 °F 29.8 °F 92% 30.02 in 10.0 mi WNW 15.0 mph 24.2 mph N/A   Overcast
12:35 AM 31.6 °F 19.0 °F 29.3 °F 91% 30.02 in 10.0 mi West 21.9 mph 25.3 mph N/A   Overcast
12:55 AM 30.9 °F 19.4 °F 28.2 °F 90% 30.03 in 10.0 mi WNW 17.3 mph 24.2 mph N/A   Overcast
1:15 AM 30.0 °F 18.7 °F 27.1 °F 89% 30.04 in 10.0 mi West 16.1 mph 27.6 mph N/A   Overcast
1:35 AM 29.3 °F 16.2 °F 26.2 °F 88% 30.05 in 10.0 mi West 20.7 mph 25.3 mph N/A   Overcast
1:55 AM 28.6 °F 16.8 °F 25.5 °F 88% 30.07 in 10.0 mi West 16.1 mph 26.5 mph N/A   Overcast
2:15 AM 28.0 °F 14.3 °F 24.8 °F 88% 30.08 in 10.0 mi WNW 21.9 mph 27.6 mph N/A   Overcast
2:35 AM 27.5 °F 13.5 °F 23.9 °F 86% 30.09 in 10.0 mi NW 21.9 mph 26.5 mph N/A   Overcast
2:55 AM 27.3 °F 14.4 °F 23.7 °F 86% 30.10 in 10.0 mi WNW 18.4 mph 26.5 mph N/A   Overcast
3:15 AM 26.6 °F 13.8 °F 23.0 °F 86% 30.11 in 10.0 mi NNW 17.3 mph 27.6 mph N/A   Mostly Cloudy
3:35 AM 25.9 °F 13.3 °F 22.3 °F 86% 30.12 in 10.0 mi NE 16.1 mph 20.7 mph N/A   Mostly Cloudy
3:55 AM 25.5 °F 10.9 °F 21.9 °F 86% 30.13 in 10.0 mi WNW 21.9 mph 26.5 mph N/A   Mostly Cloudy
4:15 AM 24.8 °F 10.0 °F 21.2 °F 86% 30.13 in 10.0 mi NW 21.9 mph 28.8 mph N/A   Scattered Clouds
4:35 AM 24.6 °F 10.5 °F 21.0 °F 86% 30.14 in 10.0 mi WNW 19.6 mph - N/A   Clear
4:55 AM 24.6 °F 10.5 °F 20.7 °F 85% 30.15 in 10.0 mi West 19.6 mph 26.5 mph N/A   Clear
5:15 AM 24.6 °F 10.9 °F 20.7 °F 85% 30.18 in 10.0 mi WNW 18.4 mph 24.2 mph N/A   Clear
5:35 AM 24.1 °F 11.5 °F 20.1 °F 85% 30.19 in 10.0 mi WNW 15.0 mph 23.0 mph N/A   Mostly Cloudy
5:55 AM 24.3 °F 9.6 °F 20.3 °F 85% 30.20 in 10.0 mi WNW 20.7 mph 25.3 mph N/A   Overcast
6:15 AM 24.6 °F 11.3 °F 20.8 °F 86% 30.22 in 10.0 mi NNW 17.3 mph 24.2 mph N/A   Overcast
6:35 AM 24.8 °F 10.7 °F 21.2 °F 86% 30.23 in 10.0 mi NNE 19.6 mph 24.2 mph N/A   Overcast
6:55 AM 25.3 °F 11.8 °F 21.2 °F 84% 30.24 in 10.0 mi NNW 18.4 mph 23.0 mph N/A   Overcast
7:15 AM 25.5 °F 12.0 °F 21.4 °F 84% 30.24 in 10.0 mi North 18.4 mph 26.5 mph N/A   Overcast
7:35 AM 25.7 °F 12.3 °F 21.6 °F 84% 30.25 in 10.0 mi West 18.4 mph - N/A   Overcast
7:55 AM 25.7 °F 13.1 °F 22.1 °F 86% 30.27 in 10.0 mi WNW 16.1 mph - N/A   Overcast
8:15 AM 25.7 °F 12.7 °F 21.7 °F 85% 30.27 in 10.0 mi NW 17.3 mph - N/A   Overcast
8:35 AM 26.1 °F 14.5 °F 21.9 °F 84% 30.29 in 10.0 mi NNE 13.8 mph 21.9 mph N/A   Overcast
8:55 AM 26.2 °F 14.7 °F 21.9 °F 84% 30.29 in 10.0 mi North 13.8 mph - N/A   Overcast
9:15 AM 26.2 °F 15.2 °F 21.9 °F 84% 30.31 in 10.0 mi WNW 12.7 mph 20.7 mph N/A   Overcast
9:35 AM 26.6 °F 14.3 °F 21.2 °F 80% 30.32 in 10.0 mi ENE 16.1 mph - N/A   Overcast
9:55 AM 26.6 °F 14.7 °F 22.3 °F 84% 30.32 in 10.0 mi ENE 15.0 mph - N/A   Overcast
10:15 AM 26.4 °F 14.0 °F 21.7 °F 82% 30.33 in 10.0 mi North 16.1 mph - N/A   Overcast
10:35 AM 26.6 °F 16.2 °F 21.9 °F 82% 30.33 in 10.0 mi ENE 11.5 mph - N/A   Overcast
10:55 AM 26.6 °F 15.7 °F 21.9 °F 82% 30.33 in 10.0 mi ENE 12.7 mph - N/A   Overcast
11:15 AM 26.8 °F 16.5 °F 21.9 °F 82% 30.33 in 10.0 mi WNW 11.5 mph - N/A   Overcast
11:35 AM 27.3 °F 16.1 °F 22.5 °F 82% 30.32 in 10.0 mi NW 13.8 mph - N/A   Overcast
11:55 AM 27.5 °F 15.9 °F 22.6 °F 82% 30.33 in 10.0 mi WNW 15.0 mph - N/A   Overcast
12:15 PM 27.9 °F 16.8 °F 23.4 °F 83% 30.33 in 10.0 mi WNW 13.8 mph - N/A   Overcast
12:35 PM 28.2 °F 16.8 °F 23.5 °F 83% 30.33 in 10.0 mi WNW 15.0 mph - N/A   Overcast
12:55 PM 28.2 °F 18.3 °F 23.4 °F 82% 30.33 in 10.0 mi WNW 11.5 mph - N/A   Overcast
1:15 PM 28.4 °F 18.0 °F 23.7 °F 83% 30.33 in 10.0 mi West 12.7 mph - N/A   Overcast
1:35 PM 28.0 °F 17.5 °F 23.2 °F 82% 30.33 in 10.0 mi West 12.7 mph - N/A   Overcast
1:55 PM 28.2 °F 18.3 °F 23.4 °F 82% 30.33 in 10.0 mi West 11.5 mph - N/A   Overcast
2:15 PM 27.5 °F 18.0 °F 22.5 °F 81% 30.33 in 10.0 mi WNW 10.4 mph - N/A   Overcast
2:35 PM 27.5 °F 18.0 °F 22.8 °F 83% 30.33 in 10.0 mi WNW 10.4 mph - N/A   Mostly Cloudy
2:55 PM 28.0 °F 18.1 °F 23.0 °F 81% 30.33 in 10.0 mi WNW 11.5 mph 16.1 mph N/A   Mostly Cloudy
3:15 PM 28.0 °F 19.3 °F 23.4 °F 83% 30.34 in 10.0 mi WNW 9.2 mph - N/A   Overcast
3:35 PM 28.0 °F 19.3 °F 23.0 °F 81% 30.35 in 10.0 mi WNW 9.2 mph - N/A   Overcast
3:55 PM 28.0 °F 19.3 °F 23.2 °F 82% 30.35 in 10.0 mi West 9.2 mph - N/A   Overcast
4:15 PM 28.0 °F 20.0 °F 23.5 °F 83% 30.36 in 10.0 mi WNW 8.1 mph - N/A   Overcast
4:35 PM 27.5 °F 23.6 °F 22.8 °F 83% 30.36 in 10.0 mi NW 3.5 mph - N/A   Overcast
4:55 PM 27.5 °F 23.6 °F 22.8 °F 83% 30.36 in 10.0 mi North 3.5 mph - N/A   Overcast
5:15 PM 27.5 °F 20.2 °F 23.0 °F 83% 30.36 in 10.0 mi NNE 6.9 mph - N/A   Overcast
5:35 PM 27.5 °F 22.2 °F 22.5 °F 81% 30.37 in 10.0 mi WNW 4.6 mph - N/A   Overcast
5:55 PM 27.3 °F 22.0 °F 22.6 °F 83% 30.37 in 10.0 mi WNW 4.6 mph - N/A   Overcast
6:15 PM 27.1 °F 20.7 °F 22.6 °F 83% 30.37 in 10.0 mi East 5.8 mph - N/A   Overcast
6:35 PM 26.8 °F 20.2 °F 22.1 °F 83% 30.37 in 10.0 mi NE 5.8 mph - N/A   Overcast
6:55 PM 26.6 °F 21.2 °F 22.3 °F 84% 30.38 in 10.0 mi ENE 4.6 mph - N/A   Overcast
7:15 PM 26.6 °F 22.6 °F 22.6 °F 85% 30.38 in 10.0 mi NW 3.5 mph - N/A   Overcast
7:35 PM 26.6 °F 20.0 °F 23.0 °F 86% 30.37 in 10.0 mi ENE 5.8 mph - N/A   Overcast
7:55 PM 26.1 °F 19.4 °F 22.1 °F 85% 30.37 in 10.0 mi NE 5.8 mph - N/A   Overcast
8:15 PM 25.9 °F 20.3 °F 22.1 °F 86% 30.38 in 10.0 mi NE 4.6 mph - N/A   Overcast
8:35 PM 25.5 °F - 21.9 °F 86% 30.38 in 10.0 mi Calm Calm - N/A   Overcast
8:55 PM 25.7 °F - 22.1 °F 86% 30.38 in 10.0 mi Calm Calm - N/A   Overcast
9:15 PM 25.7 °F - 22.3 °F 87% 30.38 in 10.0 mi Calm Calm - N/A   Overcast
9:35 PM 25.7 °F 21.5 °F 22.1 °F 86% 30.38 in 10.0 mi ENE 3.5 mph - N/A   Overcast
9:55 PM 26.1 °F - 22.6 °F 87% 30.38 in 10.0 mi Calm Calm - N/A   Overcast
10:15 PM 25.7 °F 20.1 °F 22.6 °F 88% 30.38 in 10.0 mi ENE 4.6 mph - N/A   Overcast
10:35 PM 25.7 °F 21.5 °F 22.5 °F 88% 30.38 in 10.0 mi ENE 3.5 mph - N/A   Overcast
10:55 PM 25.7 °F 21.5 °F 22.8 °F 89% 30.38 in 10.0 mi ENE 3.5 mph - N/A   Overcast
11:15 PM 25.7 °F 19.0 °F 22.6 °F 88% 30.38 in 10.0 mi ENE 5.8 mph - N/A   Overcast
11:35 PM 25.7 °F 19.0 °F 22.6 °F 88% 30.38 in 10.0 mi ENE 5.8 mph - N/A   Overcast
11:55 PM 25.7 °F 18.0 °F 22.8 °F 89% 30.38 in 10.0 mi ENE 6.9 mph - N/A   Overcast